sensor_id;sensor_type;location;lat;lon;timestamp;P1;durP1;ratioP1;P2;durP2;ratioP2
42092;SDS011;28974;50.316;18.960;2022-10-31T00:11:39;52.60;;;24.30;;
42092;SDS011;28974;50.316;18.960;2022-10-31T00:23:39;55.03;;;26.10;;
42092;SDS011;28974;50.316;18.960;2022-10-31T00:35:40;54.03;;;22.98;;
42092;SDS011;28974;50.316;18.960;2022-10-31T00:47:40;52.33;;;22.30;;
42092;SDS011;28974;50.316;18.960;2022-10-31T00:59:40;51.63;;;21.70;;
42092;SDS011;28974;50.316;18.960;2022-10-31T01:11:41;58.38;;;27.98;;
42092;SDS011;28974;50.316;18.960;2022-10-31T01:23:42;54.30;;;23.88;;
42092;SDS011;28974;50.316;18.960;2022-10-31T01:35:42;57.40;;;22.25;;
42092;SDS011;28974;50.316;18.960;2022-10-31T01:47:43;61.15;;;24.67;;
42092;SDS011;28974;50.316;18.960;2022-10-31T01:59:46;67.07;;;26.00;;
42092;SDS011;28974;50.316;18.960;2022-10-31T02:11:48;62.78;;;23.40;;
42092;SDS011;28974;50.316;18.960;2022-10-31T02:36:16;51.67;;;23.73;;
42092;SDS011;28974;50.316;18.960;2022-10-31T02:48:22;58.25;;;25.48;;
42092;SDS011;28974;50.316;18.960;2022-10-31T03:00:24;61.05;;;23.48;;
42092;SDS011;28974;50.316;18.960;2022-10-31T03:24:29;54.05;;;24.27;;
42092;SDS011;28974;50.316;18.960;2022-10-31T03:36:33;51.80;;;22.52;;
42092;SDS011;28974;50.316;18.960;2022-10-31T03:48:34;43.22;;;22.52;;
42092;SDS011;28974;50.316;18.960;2022-10-31T04:00:34;44.88;;;22.10;;
42092;SDS011;28974;50.316;18.960;2022-10-31T04:12:37;49.03;;;21.52;;
42092;SDS011;28974;50.316;18.960;2022-10-31T04:24:48;43.35;;;20.65;;
42092;SDS011;28974;50.316;18.960;2022-10-31T04:36:51;60.83;;;26.10;;
42092;SDS011;28974;50.316;18.960;2022-10-31T04:48:51;51.20;;;22.42;;
42092;SDS011;28974;50.316;18.960;2022-10-31T05:00:53;47.90;;;21.55;;
42092;SDS011;28974;50.316;18.960;2022-10-31T05:12:54;54.20;;;24.35;;
42092;SDS011;28974;50.316;18.960;2022-10-31T05:25:13;56.80;;;24.10;;
42092;SDS011;28974;50.316;18.960;2022-10-31T05:37:14;61.33;;;23.43;;
42092;SDS011;28974;50.316;18.960;2022-10-31T05:49:15;61.20;;;25.73;;
42092;SDS011;28974;50.316;18.960;2022-10-31T06:01:36;50.88;;;22.83;;
42092;SDS011;28974;50.316;18.960;2022-10-31T06:13:41;76.75;;;39.15;;
42092;SDS011;28974;50.316;18.960;2022-10-31T06:25:50;132.07;;;45.90;;
42092;SDS011;28974;50.316;18.960;2022-10-31T06:37:54;88.70;;;36.13;;
42092;SDS011;28974;50.316;18.960;2022-10-31T06:50:03;72.15;;;31.25;;
42092;SDS011;28974;50.316;18.960;2022-10-31T07:02:03;68.13;;;29.80;;
42092;SDS011;28974;50.316;18.960;2022-10-31T07:14:04;65.10;;;29.85;;
42092;SDS011;28974;50.316;18.960;2022-10-31T07:26:04;66.43;;;28.48;;
42092;SDS011;28974;50.316;18.960;2022-10-31T07:38:13;56.40;;;24.40;;
42092;SDS011;28974;50.316;18.960;2022-10-31T07:50:15;61.88;;;24.67;;
42092;SDS011;28974;50.316;18.960;2022-10-31T08:02:48;41.55;;;15.65;;
42092;SDS011;28974;50.316;18.960;2022-10-31T08:15:23;35.58;;;17.00;;
42092;SDS011;28974;50.316;18.960;2022-10-31T08:27:25;38.30;;;15.40;;
42092;SDS011;28974;50.316;18.960;2022-10-31T08:39:27;34.58;;;16.02;;
42092;SDS011;28974;50.316;18.960;2022-10-31T08:51:28;37.75;;;17.50;;
42092;SDS011;28974;50.316;18.960;2022-10-31T09:03:30;43.88;;;18.35;;
42092;SDS011;28974;50.316;18.960;2022-10-31T09:15:31;42.80;;;17.80;;
42092;SDS011;28974;50.316;18.960;2022-10-31T09:27:47;45.80;;;16.67;;
42092;SDS011;28974;50.316;18.960;2022-10-31T09:39:47;49.20;;;17.42;;
42092;SDS011;28974;50.316;18.960;2022-10-31T10:28:43;33.13;;;14.80;;
42092;SDS011;28974;50.316;18.960;2022-10-31T10:40:44;46.42;;;19.50;;
42092;SDS011;28974;50.316;18.960;2022-10-31T10:52:50;39.15;;;14.48;;
42092;SDS011;28974;50.316;18.960;2022-10-31T11:04:58;52.40;;;14.05;;
42092;SDS011;28974;50.316;18.960;2022-10-31T11:29:38;44.75;;;14.82;;
42092;SDS011;28974;50.316;18.960;2022-10-31T11:41:39;34.00;;;14.80;;
42092;SDS011;28974;50.316;18.960;2022-10-31T11:53:47;42.75;;;14.23;;
42092;SDS011;28974;50.316;18.960;2022-10-31T12:05:58;50.88;;;15.63;;
42092;SDS011;28974;50.316;18.960;2022-10-31T12:55:03;31.45;;;11.93;;
42092;SDS011;28974;50.316;18.960;2022-10-31T13:07:15;30.52;;;13.50;;
42092;SDS011;28974;50.316;18.960;2022-10-31T13:19:19;35.55;;;11.27;;
42092;SDS011;28974;50.316;18.960;2022-10-31T13:31:20;41.53;;;13.52;;
42092;SDS011;28974;50.316;18.960;2022-10-31T13:43:29;37.38;;;12.52;;
42092;SDS011;28974;50.316;18.960;2022-10-31T13:55:42;35.33;;;11.35;;
42092;SDS011;28974;50.316;18.960;2022-10-31T14:07:43;32.53;;;11.05;;
42092;SDS011;28974;50.316;18.960;2022-10-31T14:19:55;29.23;;;9.82;;
42092;SDS011;28974;50.316;18.960;2022-10-31T14:31:57;28.63;;;10.43;;
42092;SDS011;28974;50.316;18.960;2022-10-31T14:44:03;25.88;;;10.55;;
42092;SDS011;28974;50.316;18.960;2022-10-31T14:56:09;26.90;;;9.85;;
42092;SDS011;28974;50.316;18.960;2022-10-31T15:08:13;35.65;;;10.48;;
42092;SDS011;28974;50.316;18.960;2022-10-31T15:20:17;27.02;;;10.25;;
42092;SDS011;28974;50.316;18.960;2022-10-31T15:32:19;41.97;;;9.75;;
42092;SDS011;28974;50.316;18.960;2022-10-31T15:56:28;38.13;;;12.93;;
42092;SDS011;28974;50.316;18.960;2022-10-31T16:20:29;42.75;;;17.13;;
42092;SDS011;28974;50.316;18.960;2022-10-31T16:32:33;47.22;;;19.08;;
42092;SDS011;28974;50.316;18.960;2022-10-31T16:44:34;57.58;;;20.88;;
42092;SDS011;28974;50.316;18.960;2022-10-31T16:56:34;57.17;;;24.63;;
42092;SDS011;28974;50.316;18.960;2022-10-31T17:08:36;54.55;;;19.85;;
42092;SDS011;28974;50.316;18.960;2022-10-31T17:20:36;69.38;;;24.52;;
42092;SDS011;28974;50.316;18.960;2022-10-31T17:32:36;51.47;;;23.73;;
42092;SDS011;28974;50.316;18.960;2022-10-31T17:44:36;58.28;;;24.50;;
42092;SDS011;28974;50.316;18.960;2022-10-31T17:56:37;81.57;;;33.28;;
42092;SDS011;28974;50.316;18.960;2022-10-31T18:08:38;111.22;;;51.50;;
42092;SDS011;28974;50.316;18.960;2022-10-31T18:20:38;104.90;;;47.28;;
42092;SDS011;28974;50.316;18.960;2022-10-31T18:32:39;91.85;;;38.95;;
42092;SDS011;28974;50.316;18.960;2022-10-31T18:44:40;87.32;;;42.05;;
42092;SDS011;28974;50.316;18.960;2022-10-31T18:56:40;73.05;;;36.97;;
42092;SDS011;28974;50.316;18.960;2022-10-31T19:08:40;122.15;;;55.28;;
42092;SDS011;28974;50.316;18.960;2022-10-31T19:20:41;170.20;;;61.60;;
42092;SDS011;28974;50.316;18.960;2022-10-31T19:32:41;188.48;;;68.68;;
42092;SDS011;28974;50.316;18.960;2022-10-31T19:44:42;207.00;;;68.40;;
42092;SDS011;28974;50.316;18.960;2022-10-31T19:56:43;192.10;;;65.60;;
42092;SDS011;28974;50.316;18.960;2022-10-31T20:08:44;189.15;;;66.45;;
42092;SDS011;28974;50.316;18.960;2022-10-31T20:20:45;150.88;;;62.88;;
42092;SDS011;28974;50.316;18.960;2022-10-31T20:32:45;145.60;;;59.30;;
42092;SDS011;28974;50.316;18.960;2022-10-31T20:44:45;162.60;;;68.63;;
42092;SDS011;28974;50.316;18.960;2022-10-31T20:56:46;164.88;;;75.95;;
42092;SDS011;28974;50.316;18.960;2022-10-31T21:08:46;160.20;;;71.07;;
42092;SDS011;28974;50.316;18.960;2022-10-31T21:20:46;137.18;;;57.83;;
42092;SDS011;28974;50.316;18.960;2022-10-31T21:32:47;142.52;;;59.15;;
42092;SDS011;28974;50.316;18.960;2022-10-31T21:44:48;135.50;;;58.92;;
42092;SDS011;28974;50.316;18.960;2022-10-31T21:56:48;135.40;;;61.55;;
42092;SDS011;28974;50.316;18.960;2022-10-31T22:08:48;118.35;;;58.05;;
42092;SDS011;28974;50.316;18.960;2022-10-31T22:20:49;124.10;;;52.75;;
42092;SDS011;28974;50.316;18.960;2022-10-31T22:32:49;130.23;;;56.72;;
42092;SDS011;28974;50.316;18.960;2022-10-31T22:44:49;125.07;;;54.08;;
42092;SDS011;28974;50.316;18.960;2022-10-31T22:56:49;124.32;;;55.70;;
42092;SDS011;28974;50.316;18.960;2022-10-31T23:08:50;121.50;;;53.95;;
42092;SDS011;28974;50.316;18.960;2022-10-31T23:20:51;123.68;;;56.22;;
42092;SDS011;28974;50.316;18.960;2022-10-31T23:32:52;142.20;;;66.70;;
42092;SDS011;28974;50.316;18.960;2022-10-31T23:44:53;128.38;;;56.38;;
42092;SDS011;28974;50.316;18.960;2022-10-31T23:56:53;159.88;;;67.85;;
